Terminal Aerodrome Forecast
Issued by NWS

Home | Current Version | Previous Version | Text Only | Print | Product List | Glossary On
Versions: 1 2 3 4 5 6 7 8 9 10 11
000
FTUS44 KCRP 272300
TAFLRD
TAF
KLRD 272338Z 2800/2824 36015G20KT P6SM OVC015
     FM280600 36010KT P6SM VCSH BKN015 OVC020
     FM281500 34012G18KT P6SM BKN030
     FM282000 34010KT P6SM SCT035=

USA.gov is the U.S. government's official web portal to all federal, state and local government web resources and services.